EST,Max TemperatureF,Mean TemperatureF,Min TemperatureF,Max Dew PointF,MeanDew PointF,Min DewpointF,Max Humidity, Mean Humidity, Min Humidity, Max Sea Level PressureIn, Mean Sea Level PressureIn, Min Sea Level PressureIn, Max VisibilityMiles, Mean VisibilityMiles, Min VisibilityMiles, Max Wind SpeedMPH, Mean Wind SpeedMPH, Max Gust SpeedMPH,PrecipitationIn, CloudCover, Events, WindDirDegrees
2013-1-1,28,16,5,18,9,1,92,68,50,30.17,30.10,30.04,10,10,10,12,7,,0.00,5,,311
2013-1-2,25,13,1,17,10,-1,92,81,69,30.22,30.16,30.07,10,10,8,12,4,,0.00,6,,241
2013-1-3,30,20,10,24,15,4,82,75,67,30.19,30.14,30.09,10,8,4,15,7,21,0.00,7,,241
2013-1-4,28,24,21,23,18,15,82,73,61,30.22,30.13,30.06,10,10,8,23,14,30,0.00,3,,252
2013-1-5,32,20,8,29,18,7,93,86,75,30.30,30.19,30.04,8,4,0,13,5,18,0.00,3,Fog-Snow,217
2013-1-6,35,34,32,31,28,24,87,81,70,30.28,30.01,29.91,10,6,3,16,11,25,0.00,8,Snow,255
2013-1-7,33,30,26,24,22,19,79,73,66,30.40,30.30,30.17,10,9,7,18,7,26,0.00,3,,226
2013-1-8,34,25,16,26,20,14,93,83,70,30.28,30.22,30.17,7,4,2,9,6,,0.00,0,,204
2013-1-9,45,30,15,31,23,14,100,75,44,30.47,30.18,30.07,10,6,1,22,6,32,0.00,1,,253
2013-1-10,39,29,19,32,25,16,89,78,60,30.59,30.45,30.17,10,8,2,12,3,,0.05,2,Rain,120
2013-1-11,57,46,35,50,40,32,100,90,72,30.15,29.92,29.77,10,5,1,16,8,23,0.61,6,Rain,160
2013-1-12,59,51,43,50,46,41,100,89,69,29.94,29.89,29.84,10,5,0,13,6,17,0.00,1,Fog-Rain,207
2013-1-13,50,41,30,48,37,33,100,89,81,30.06,29.86,29.73,10,7,2,17,10,23,0.63,8,Rain-Snow,335
2013-1-14,30,24,17,17,15,14,88,75,66,30.45,30.33,30.04,10,10,10,22,12,28,0.00,6,,291
2013-1-15,30,21,12,19,15,9,92,77,58,30.46,30.36,30.16,10,10,7,5,1,,0.00,0,,187
2013-1-16,37,27,17,26,18,14,92,69,39,30.14,29.97,29.84,10,10,7,20,6,28,0.00,4,,258
2013-1-17,37,28,19,27,18,4,75,61,43,30.33,30.16,29.99,10,10,10,20,11,31,0.00,3,,308
2013-1-18,34,24,15,22,14,6,77,60,46,30.45,30.28,30.00,10,10,10,21,8,29,0.00,4,,222
2013-1-19,48,41,34,33,27,21,68,58,48,29.98,29.85,29.62,10,10,10,22,15,29,0.00,1,,227
2013-1-20,44,30,17,32,7,4,63,56,48,30.16,30.02,29.58,10,10,10,23,16,37,0.00,7,,294
2013-1-21,18,10,3,13,7,-3,88,75,59,30.14,30.01,29.93,10,4,0,21,8,28,0.01,8,Fog-Snow,292
2013-1-22,10,2,-7,5,-2,-13,85,72,58,30.32,30.24,30.09,10,7,1,15,8,20,0.00,6,Snow,270
2013-1-23,17,9,1,11,5,-1,92,78,62,30.31,30.17,30.05,10,7,2,14,6,,0.00,8,Snow,247
2013-1-24,19,12,5,9,4,-4,85,70,41,30.60,30.43,30.08,10,9,2,13,8,21,0.00,2,Snow,338
2013-1-25,19,16,12,18,13,3,96,82,64,30.49,30.14,29.99,10,4,0,8,4,,0.06,8,Fog-Snow,165
2013-1-26,25,18,12,18,15,9,96,80,59,30.48,30.27,30.02,10,8,4,10,4,,0.00,7,Snow,302
2013-1-27,30,16,3,27,16,0,100,86,61,30.50,30.35,30.13,10,4,0,15,4,21,0.20,5,Fog-Rain-Snow,141
2013-1-28,43,36,30,43,36,28,100,96,92,30.12,29.97,29.88,5,2,0,15,9,24,0.21,8,Fog-Rain-Snow,214
2013-1-29,57,46,35,54,47,35,100,96,87,30.01,29.76,29.47,10,3,0,25,6,90,0.53,8,Fog-Rain-Thunderstorm,188
2013-1-30,61,47,32,57,47,24,100,90,73,29.42,29.24,29.14,10,7,0,25,12,41,0.53,8,Fog-Rain,227
2013-1-31,30,22,15,23,15,9,89,76,60,29.91,29.65,29.27,10,5,0,30,20,44,0.00,8,Snow,273